Time;durP1;ratioP1;P1;durP2;ratioP2;P2;SDS_P1;SDS_P2;PMS_P1;PMS_P2;Temp;Humidity;BMP_temperature;BMP_pressure;BME280_temperature;BME280_humidity;BME280_pressure;Samples;Min_cycle;Max_cycle;Signal;HPM_P1;HPM_P2
2023/01/12 00:01:57;;;;;;;;;;;17.80;43.30;;;;;;8364397;28;20289;-44
2023/01/12 00:06:03;;;;;;;;;;;17.80;43.20;;;;;;8364848;28;19916;-45
2023/01/12 00:10:03;;;;;;;;;;;17.80;43.20;;;;;;8364631;28;19928;-45
2023/01/12 00:14:05;;;;;;;;;;;17.80;43.20;;;;;;8364236;28;19916;-45
2023/01/12 00:18:05;;;;;;;;;;;17.80;43.20;;;;;;8364019;28;19929;-44
2023/01/12 00:22:11;;;;;;;;;;;17.80;43.20;;;;;;8364427;28;19996;-45
2023/01/12 00:26:12;;;;;;;;;;;17.80;43.20;;;;;;8363529;28;19917;-44
2023/01/12 00:30:12;;;;;;;;;;;17.80;43.20;;;;;;8364206;28;19919;-45
2023/01/12 00:34:13;;;;;;;;;;;17.70;43.20;;;;;;8363933;28;19924;-45
2023/01/12 00:38:13;;;;;;;;;;;17.70;43.20;;;;;;8363004;28;20046;-45
2023/01/12 00:46:33;;;;;;;;;;;17.70;43.20;;;;;;8363396;28;19977;-45
2023/01/12 00:50:33;;;;;;;;;;;17.80;43.20;;;;;;8362923;28;20275;-46
2023/01/12 00:54:34;;;;;;;;;;;17.70;43.10;;;;;;8363293;28;19924;-44
2023/01/12 00:58:34;;;;;;;;;;;17.80;43.20;;;;;;8363607;28;19932;-44
2023/01/12 01:02:35;;;;;;;;;;;17.70;43.20;;;;;;8363007;28;19921;-44
2023/01/12 01:06:36;;;;;;;;;;;17.70;43.10;;;;;;8363694;28;19971;-44
2023/01/12 01:10:36;;;;;;;;;;;17.70;43.20;;;;;;8362833;28;19920;-43
2023/01/12 01:14:36;;;;;;;;;;;17.70;43.20;;;;;;8362708;28;19917;-43
2023/01/12 01:18:37;;;;;;;;;;;17.70;43.20;;;;;;8363219;28;20384;-44
2023/01/12 01:22:38;;;;;;;;;;;17.70;43.20;;;;;;8362818;28;19924;-44
2023/01/12 01:26:39;;;;;;;;;;;17.70;43.20;;;;;;8362215;28;20393;-44
2023/01/12 01:30:39;;;;;;;;;;;17.70;43.30;;;;;;8363037;28;20374;-43
2023/01/12 01:34:39;;;;;;;;;;;17.70;43.20;;;;;;8362403;28;19917;-42
2023/01/12 01:38:42;;;;;;;;;;;17.70;43.30;;;;;;8361875;28;19925;-43
2023/01/12 01:42:42;;;;;;;;;;;17.70;43.30;;;;;;8362478;28;19921;-44
2023/01/12 01:46:46;;;;;;;;;;;17.70;43.20;;;;;;8361996;28;19935;-45
2023/01/12 01:50:51;;;;;;;;;;;17.70;43.20;;;;;;8362867;28;19920;-44
2023/01/12 01:54:54;;;;;;;;;;;17.80;43.20;;;;;;8364333;28;20358;-44
2023/01/12 01:59:01;;;;;;;;;;;17.80;43.20;;;;;;8368504;28;19925;-44
2023/01/12 02:03:03;;;;;;;;;;;17.70;43.10;;;;;;8368791;28;19923;-44
2023/01/12 02:07:05;;;;;;;;;;;17.80;43.20;;;;;;8359771;28;19972;-44
2023/01/12 02:16:19;;;;;;;;;;;17.80;43.20;;;;;;8344502;28;19923;-44
2023/01/12 02:20:06;;;;;;;;;;;17.80;43.10;;;;;;8368273;28;19958;-44
2023/01/12 02:24:15;;;;;;;;;;;17.80;43.20;;;;;;8368290;28;19917;-44
2023/01/12 02:28:25;;;;;;;;;;;17.70;43.10;;;;;;8367829;28;20007;-44
2023/01/12 02:32:25;;;;;;;;;;;17.70;43.10;;;;;;8366936;28;19921;-44
2023/01/12 02:36:25;;;;;;;;;;;17.70;43.10;;;;;;8367722;28;19920;-45
2023/01/12 02:40:43;;;;;;;;;;;17.70;43.10;;;;;;8367455;28;19952;-44
2023/01/12 02:44:46;;;;;;;;;;;17.70;43.10;;;;;;8367377;28;19924;-43
2023/01/12 02:48:50;;;;;;;;;;;17.70;43.00;;;;;;8366988;28;19916;-43
2023/01/12 02:52:54;;;;;;;;;;;17.70;43.00;;;;;;8366737;28;19924;-45
2023/01/12 02:56:59;;;;;;;;;;;17.60;43.00;;;;;;8367190;28;20404;-43
2023/01/12 03:00:59;;;;;;;;;;;17.70;43.00;;;;;;8366827;28;20267;-43
2023/01/12 03:05:00;;;;;;;;;;;17.70;43.00;;;;;;8366022;28;19925;-44
2023/01/12 03:09:00;;;;;;;;;;;17.70;43.00;;;;;;8366506;28;20481;-44
2023/01/12 03:13:05;;;;;;;;;;;17.70;43.00;;;;;;8366432;28;19916;-44
2023/01/12 03:17:08;;;;;;;;;;;17.70;43.00;;;;;;8365731;28;19928;-44
2023/01/12 03:21:14;;;;;;;;;;;17.70;43.00;;;;;;8366306;28;19935;-44
2023/01/12 03:25:16;;;;;;;;;;;17.60;42.90;;;;;;8366217;28;19917;-44
2023/01/12 03:29:28;;;;;;;;;;;17.60;42.90;;;;;;8365549;28;19924;-43
2023/01/12 03:33:29;;;;;;;;;;;17.60;42.90;;;;;;8365730;28;19917;-44
2023/01/12 03:37:43;;;;;;;;;;;17.60;42.90;;;;;;8365263;28;19927;-43
2023/01/12 03:42:01;;;;;;;;;;;17.60;42.90;;;;;;8365096;28;20361;-43
2023/01/12 03:46:03;;;;;;;;;;;17.60;42.90;;;;;;8365504;28;20008;-44
2023/01/12 03:50:15;;;;;;;;;;;17.60;42.90;;;;;;8364890;28;19923;-44
2023/01/12 03:54:17;;;;;;;;;;;17.60;43.00;;;;;;8365155;28;19920;-44
2023/01/12 03:58:17;;;;;;;;;;;17.60;42.90;;;;;;8365058;28;19932;-43
2023/01/12 04:02:18;;;;;;;;;;;17.60;43.00;;;;;;8364027;28;19923;-44
2023/01/12 04:06:18;;;;;;;;;;;17.50;42.90;;;;;;8364784;28;19962;-44
2023/01/12 04:10:19;;;;;;;;;;;17.60;42.90;;;;;;8364870;28;19966;-44
2023/01/12 04:14:19;;;;;;;;;;;17.60;43.00;;;;;;8363961;28;20374;-44
2023/01/12 04:18:20;;;;;;;;;;;17.60;43.00;;;;;;8363430;28;19982;-44
2023/01/12 04:26:39;;;;;;;;;;;17.60;43.00;;;;;;8363370;28;19998;-44
2023/01/12 04:30:40;;;;;;;;;;;17.60;43.00;;;;;;8364242;28;19913;-44
2023/01/12 04:34:40;;;;;;;;;;;17.60;43.00;;;;;;8363845;28;19975;-44
2023/01/12 04:38:40;;;;;;;;;;;17.60;43.00;;;;;;8363415;28;19944;-44
2023/01/12 04:42:59;;;;;;;;;;;17.60;43.50;;;;;;8363701;28;19972;-44
2023/01/12 04:47:00;;;;;;;;;;;17.60;42.90;;;;;;8363106;28;21808;-44
2023/01/12 04:51:01;;;;;;;;;;;17.60;42.90;;;;;;8363702;28;19917;-44
2023/01/12 04:55:01;;;;;;;;;;;17.60;42.90;;;;;;8363203;28;19921;-44
2023/01/12 04:59:02;;;;;;;;;;;17.60;42.90;;;;;;8362783;28;20011;-44
2023/01/12 05:03:03;;;;;;;;;;;17.60;42.80;;;;;;8363204;28;20328;-45
2023/01/12 05:07:03;;;;;;;;;;;17.60;42.80;;;;;;8363401;28;19970;-45
2023/01/12 05:11:04;;;;;;;;;;;17.60;42.90;;;;;;8361956;28;19920;-45
2023/01/12 05:15:04;;;;;;;;;;;17.60;42.80;;;;;;8363211;28;19940;-44
2023/01/12 05:19:05;;;;;;;;;;;17.60;42.80;;;;;;8362811;28;20394;-44
2023/01/12 05:23:05;;;;;;;;;;;17.60;42.80;;;;;;8362514;28;20388;-44
2023/01/12 05:27:06;;;;;;;;;;;17.60;42.90;;;;;;8362829;28;19963;-43
2023/01/12 05:31:08;;;;;;;;;;;17.60;42.80;;;;;;8368452;28;20293;-46
2023/01/12 05:35:08;;;;;;;;;;;17.60;42.90;;;;;;8369021;28;19920;-44
2023/01/12 05:39:09;;;;;;;;;;;17.60;42.90;;;;;;8369177;28;19924;-44
2023/01/12 05:47:30;;;;;;;;;;;17.60;42.90;;;;;;8368906;28;19960;-45
2023/01/12 05:51:31;;;;;;;;;;;17.60;42.90;;;;;;8368853;28;19913;-44
2023/01/12 05:55:31;;;;;;;;;;;17.60;42.90;;;;;;8369330;28;19921;-44
2023/01/12 05:59:32;;;;;;;;;;;17.60;42.80;;;;;;8367835;28;20289;-44
2023/01/12 06:03:32;;;;;;;;;;;17.50;42.80;;;;;;8368532;28;19924;-45
2023/01/12 06:07:33;;;;;;;;;;;17.60;42.80;;;;;;8368302;28;20327;-44
2023/01/12 06:15:52;;;;;;;;;;;17.60;42.80;;;;;;8371978;28;19924;-44
2023/01/12 06:19:53;;;;;;;;;;;17.60;42.70;;;;;;8367615;28;19917;-45
2023/01/12 06:23:53;;;;;;;;;;;17.60;42.80;;;;;;8368140;28;19922;-44
2023/01/12 06:27:54;;;;;;;;;;;17.60;42.90;;;;;;8367737;28;19917;-44
2023/01/12 06:31:54;;;;;;;;;;;17.60;42.80;;;;;;8367393;28;19959;-44
2023/01/12 06:35:55;;;;;;;;;;;17.60;42.80;;;;;;8368023;28;19917;-45
2023/01/12 06:39:55;;;;;;;;;;;17.60;42.80;;;;;;8366678;28;20020;-44
2023/01/12 06:43:56;;;;;;;;;;;17.50;42.80;;;;;;8366491;28;19943;-44
2023/01/12 06:47:57;;;;;;;;;;;17.60;42.70;;;;;;8367543;28;19927;-45
2023/01/12 06:51:58;;;;;;;;;;;17.60;42.80;;;;;;8366981;28;20297;-44
2023/01/12 06:55:58;;;;;;;;;;;17.60;42.80;;;;;;8366361;28;19928;-44
2023/01/12 06:59:59;;;;;;;;;;;17.60;42.80;;;;;;8366890;28;19924;-45
2023/01/12 07:03:59;;;;;;;;;;;17.60;42.80;;;;;;8366675;28;19916;-44
2023/01/12 07:07:59;;;;;;;;;;;17.50;42.90;;;;;;8366057;28;19924;-45
2023/01/12 07:12:01;;;;;;;;;;;17.50;42.80;;;;;;8366634;28;19919;-43
2023/01/12 07:16:01;;;;;;;;;;;17.50;42.80;;;;;;8367314;28;19928;-44
2023/01/12 07:20:02;;;;;;;;;;;17.50;42.80;;;;;;8366449;28;20413;-44
2023/01/12 07:24:02;;;;;;;;;;;17.50;42.80;;;;;;8366892;28;20346;-44
2023/01/12 07:28:03;;;;;;;;;;;17.60;42.80;;;;;;8366668;28;19920;-44
2023/01/12 07:32:03;;;;;;;;;;;17.60;42.80;;;;;;8365993;28;19967;-44
2023/01/12 07:36:04;;;;;;;;;;;17.60;42.70;;;;;;8365632;28;19921;-44
2023/01/12 07:40:04;;;;;;;;;;;17.60;42.70;;;;;;8365986;28;19916;-44
2023/01/12 07:44:05;;;;;;;;;;;17.60;42.70;;;;;;8364725;28;19917;-44
2023/01/12 07:48:05;;;;;;;;;;;17.50;42.70;;;;;;8365570;28;20399;-44
2023/01/12 07:52:06;;;;;;;;;;;17.50;42.70;;;;;;8365251;28;19913;-44
2023/01/12 07:56:08;;;;;;;;;;;17.50;42.80;;;;;;8364611;28;19924;-44
2023/01/12 08:00:09;;;;;;;;;;;17.50;42.70;;;;;;8364847;28;19921;-44
2023/01/12 08:04:09;;;;;;;;;;;17.50;42.80;;;;;;8364539;28;19913;-44
2023/01/12 08:08:09;;;;;;;;;;;17.50;42.80;;;;;;8362975;28;19956;-44
2023/01/12 08:12:10;;;;;;;;;;;17.50;42.80;;;;;;8364818;28;19912;-44
2023/01/12 08:16:14;;;;;;;;;;;17.60;42.90;;;;;;8364349;28;19931;-45
2023/01/12 08:20:17;;;;;;;;;;;17.60;42.70;;;;;;8364100;28;20393;-45
2023/01/12 08:24:20;;;;;;;;;;;17.60;42.70;;;;;;8364511;28;19916;-45
2023/01/12 08:28:23;;;;;;;;;;;17.60;42.70;;;;;;8364081;28;19917;-45
2023/01/12 08:32:25;;;;;;;;;;;17.50;42.70;;;;;;8363896;28;20393;-42
2023/01/12 08:36:27;;;;;;;;;;;17.60;42.70;;;;;;8363850;28;19929;-45
2023/01/12 08:41:31;;;;;;;;;;;17.50;42.70;;;;;;8363828;28;19917;-45
2023/01/12 08:44:47;;;;;;;;;;;17.60;42.70;;;;;;8363391;28;19920;-45
2023/01/12 08:48:48;;;;;;;;;;;17.60;42.70;;;;;;8363541;28;19917;-44
2023/01/12 08:52:48;;;;;;;;;;;17.60;42.70;;;;;;8363147;28;19924;-45
2023/01/12 08:56:49;;;;;;;;;;;17.60;42.70;;;;;;8363813;28;19925;-45
2023/01/12 09:00:49;;;;;;;;;;;17.60;42.70;;;;;;8363531;28;19917;-45
2023/01/12 09:04:50;;;;;;;;;;;17.60;42.60;;;;;;8361825;28;20409;-45
2023/01/12 09:08:54;;;;;;;;;;;17.60;42.70;;;;;;8363133;28;19913;-44
2023/01/12 09:12:55;;;;;;;;;;;17.60;42.60;;;;;;8363312;28;20380;-44
2023/01/12 09:16:55;;;;;;;;;;;17.60;42.60;;;;;;8362692;28;20006;-44
2023/01/12 09:21:00;;;;;;;;;;;17.60;42.60;;;;;;8362841;28;20016;-44
2023/01/12 09:25:00;;;;;;;;;;;17.60;42.60;;;;;;8363102;28;19913;-45
2023/01/12 09:29:03;;;;;;;;;;;17.60;42.60;;;;;;8362381;28;20398;-45
2023/01/12 09:33:03;;;;;;;;;;;17.50;42.60;;;;;;8363125;28;19967;-45
2023/01/12 09:37:04;;;;;;;;;;;17.60;42.60;;;;;;8362950;28;19925;-45
2023/01/12 09:50:08;;;;;;;;;;;17.60;42.60;;;;;;8362199;28;19931;-45
2023/01/12 09:54:09;;;;;;;;;;;17.50;42.60;;;;;;8362341;28;20425;-45
2023/01/12 09:58:13;;;;;;;;;;;17.60;42.60;;;;;;8362370;28;19975;-45
2023/01/12 10:02:13;;;;;;;;;;;17.60;42.60;;;;;;8362168;28;19913;-44
2023/01/12 10:06:15;;;;;;;;;;;17.60;42.70;;;;;;8362188;28;19955;-45
2023/01/12 10:10:15;;;;;;;;;;;17.60;42.70;;;;;;8362757;28;20368;-45
2023/01/12 10:14:31;;;;;;;;;;;17.60;42.60;;;;;;8361657;28;19979;-45
2023/01/12 10:18:38;;;;;;;;;;;17.60;42.60;;;;;;8367281;28;19947;-45
2023/01/12 10:22:41;;;;;;;;;;;17.60;42.60;;;;;;8368279;28;19912;-44
2023/01/12 10:26:44;;;;;;;;;;;17.60;42.60;;;;;;8368027;28;19924;-44
2023/01/12 10:30:45;;;;;;;;;;;17.60;42.60;;;;;;8367943;28;19917;-45
2023/01/12 10:34:51;;;;;;;;;;;17.60;42.60;;;;;;8367214;28;19921;-45
2023/01/12 10:38:52;;;;;;;;;;;17.50;42.60;;;;;;8367637;28;19925;-45
2023/01/12 10:43:20;;;;;;;;;;;17.60;42.60;;;;;;8367663;28;19966;-45
2023/01/12 10:47:20;;;;;;;;;;;17.60;43.20;;;;;;8366929;28;19920;-46
2023/01/12 10:51:28;;;;;;;;;;;17.60;42.60;;;;;;8367379;28;20305;-44
2023/01/12 10:55:33;;;;;;;;;;;17.60;42.60;;;;;;8367108;28;19921;-45
2023/01/12 10:59:36;;;;;;;;;;;17.60;42.60;;;;;;8366572;28;19932;-45
2023/01/12 11:03:39;;;;;;;;;;;17.60;42.60;;;;;;8352396;28;19917;-45
2023/01/12 11:07:47;;;;;;;;;;;17.60;42.60;;;;;;8367494;28;19912;-44
2023/01/12 11:11:51;;;;;;;;;;;17.60;42.60;;;;;;8366659;28;20420;-44
2023/01/12 11:16:00;;;;;;;;;;;17.60;42.60;;;;;;8366412;28;20343;-43
2023/01/12 11:20:03;;;;;;;;;;;17.60;42.60;;;;;;8366379;28;19927;-43
2023/01/12 11:24:08;;;;;;;;;;;17.60;42.60;;;;;;8366408;28;19921;-43
2023/01/12 11:28:14;;;;;;;;;;;17.60;42.60;;;;;;8365968;28;20384;-43
2023/01/12 11:32:23;;;;;;;;;;;17.60;42.60;;;;;;8365338;28;20359;-43
2023/01/12 11:36:35;;;;;;;;;;;17.60;42.60;;;;;;8365844;28;19921;-43
2023/01/12 11:40:37;;;;;;;;;;;17.60;42.60;;;;;;8365637;28;19924;-44
2023/01/12 11:44:47;;;;;;;;;;;17.60;42.60;;;;;;8365348;28;20384;-45
2023/01/12 11:49:05;;;;;;;;;;;17.60;42.60;;;;;;8365673;28;19920;-43
2023/01/12 11:53:12;;;;;;;;;;;17.60;42.60;;;;;;8365115;28;19921;-43
2023/01/12 11:57:19;;;;;;;;;;;17.60;42.50;;;;;;8365104;28;20305;-43
2023/01/12 12:01:20;;;;;;;;;;;17.60;42.60;;;;;;8364840;28;20350;-44
2023/01/12 12:05:40;;;;;;;;;;;17.70;42.70;;;;;;8364354;28;20011;-43
2023/01/12 12:09:57;;;;;;;;;;;17.60;42.60;;;;;;8364837;28;19912;-43
2023/01/12 12:14:04;;;;;;;;;;;17.60;42.60;;;;;;8364397;28;19960;-43
2023/01/12 12:18:20;;;;;;;;;;;17.60;42.60;;;;;;8364722;28;20029;-43
2023/01/12 12:22:42;;;;;;;;;;;17.60;42.60;;;;;;8364290;28;20293;-43
2023/01/12 12:26:47;;;;;;;;;;;17.60;42.60;;;;;;8363863;28;19917;-43
2023/01/12 12:31:07;;;;;;;;;;;17.60;42.60;;;;;;8363975;28;19997;-44
2023/01/12 12:35:21;;;;;;;;;;;17.70;42.60;;;;;;8363522;28;19917;-44
2023/01/12 12:39:34;;;;;;;;;;;17.60;42.60;;;;;;8363316;28;19936;-44
2023/01/12 12:48:13;;;;;;;;;;;17.70;42.60;;;;;;8363464;28;19986;-43
2023/01/12 12:52:13;;;;;;;;;;;17.70;42.70;;;;;;8363953;28;20293;-43
2023/01/12 12:56:18;;;;;;;;;;;17.60;42.60;;;;;;8362756;28;19925;-45
2023/01/12 13:00:29;;;;;;;;;;;17.70;42.60;;;;;;8363387;28;19952;-44
2023/01/12 13:04:37;;;;;;;;;;;17.60;42.60;;;;;;8362360;28;22322;-44
2023/01/12 13:08:38;;;;;;;;;;;17.70;42.60;;;;;;8362877;28;19917;-44
2023/01/12 13:12:39;;;;;;;;;;;17.70;42.70;;;;;;8363049;28;19917;-44
2023/01/12 13:16:44;;;;;;;;;;;17.70;42.60;;;;;;8363079;28;19927;-44
2023/01/12 13:20:50;;;;;;;;;;;17.70;42.60;;;;;;8362692;28;19921;-43
2023/01/12 13:24:52;;;;;;;;;;;17.70;42.60;;;;;;8362692;28;20004;-44
2023/01/12 13:29:11;;;;;;;;;;;17.70;42.60;;;;;;8362946;28;20011;-43
2023/01/12 13:33:22;;;;;;;;;;;17.70;42.50;;;;;;8362694;28;20237;-44
2023/01/12 13:37:30;;;;;;;;;;;17.70;42.50;;;;;;8362726;28;20033;-44
2023/01/12 13:45:56;;;;;;;;;;;17.60;42.40;;;;;;8362701;28;19955;-45
2023/01/12 13:49:58;;;;;;;;;;;17.70;42.50;;;;;;8363636;28;20313;-43
2023/01/12 13:54:00;;;;;;;;;;;17.70;42.50;;;;;;8369513;28;20288;-44
2023/01/12 13:58:14;;;;;;;;;;;17.70;42.50;;;;;;8368331;28;20347;-46
2023/01/12 14:02:16;;;;;;;;;;;17.70;42.50;;;;;;8368267;28;20088;-44
2023/01/12 14:06:32;;;;;;;;;;;17.70;42.50;;;;;;8367257;28;19935;-43
2023/01/12 14:10:51;;;;;;;;;;;17.70;42.50;;;;;;8368377;28;19924;-44
2023/01/12 14:19:22;;;;;;;;;;;17.70;42.40;;;;;;8369978;28;19935;-44
2023/01/12 14:23:25;;;;;;;;;;;17.70;42.50;;;;;;8368126;28;19970;-43
2023/01/12 14:27:25;;;;;;;;;;;17.70;42.40;;;;;;8367892;28;19917;-45
2023/01/12 14:31:26;;;;;;;;;;;17.70;42.50;;;;;;8367789;28;20336;-43
2023/01/12 14:35:26;;;;;;;;;;;17.70;42.50;;;;;;8367687;28;19921;-43
2023/01/12 14:39:29;;;;;;;;;;;17.70;42.50;;;;;;8367805;28;19967;-43
2023/01/12 14:47:53;;;;;;;;;;;17.70;42.50;;;;;;8367013;28;19924;-44
2023/01/12 14:52:00;;;;;;;;;;;17.70;42.50;;;;;;8367147;28;19912;-44
2023/01/12 14:56:39;;;;;;;;;;;17.70;42.50;;;;;;8366969;28;20361;-43
2023/01/12 15:00:41;;;;;;;;;;;17.70;42.50;;;;;;8232947;28;19929;-45
2023/01/12 15:04:51;;;;;;;;;;;17.70;42.50;;;;;;8280029;28;19913;-44
2023/01/12 15:08:52;;;;;;;;;;;17.70;42.50;;;;;;8364318;28;20431;-44
2023/01/12 15:12:54;;;;;;;;;;;17.70;42.50;;;;;;8366341;28;19916;-43
2023/01/12 15:25:36;;;;;;;;;;;17.70;42.40;;;;;;8369381;28;19920;-44
2023/01/12 15:29:36;;;;;;;;;;;17.70;42.40;;;;;;8365795;28;19980;-44
2023/01/12 15:33:37;;;;;;;;;;;17.70;42.50;;;;;;8365803;28;19917;-43
2023/01/12 15:37:37;;;;;;;;;;;17.70;42.50;;;;;;8365616;28;19971;-43
2023/01/12 15:45:57;;;;;;;;;;;17.70;42.50;;;;;;8365813;28;19959;-44
2023/01/12 15:49:57;;;;;;;;;;;17.70;42.50;;;;;;8365287;28;19913;-43
2023/01/12 15:53:58;;;;;;;;;;;17.70;42.40;;;;;;8365352;28;19940;-43
2023/01/12 15:57:58;;;;;;;;;;;17.70;42.40;;;;;;8364717;28;19929;-44
2023/01/12 16:01:58;;;;;;;;;;;17.70;42.40;;;;;;8364377;28;19982;-43
2023/01/12 16:05:59;;;;;;;;;;;17.70;42.40;;;;;;8364538;28;19912;-43
2023/01/12 16:09:59;;;;;;;;;;;17.70;42.40;;;;;;8364735;28;20285;-44
2023/01/12 16:14:00;;;;;;;;;;;17.70;43.00;;;;;;8363150;28;20374;-45
2023/01/12 16:18:00;;;;;;;;;;;17.60;42.40;;;;;;8364287;28;19928;-44
2023/01/12 16:22:01;;;;;;;;;;;17.70;42.50;;;;;;8364076;28;19916;-45
2023/01/12 16:26:01;;;;;;;;;;;17.70;42.50;;;;;;8363565;28;19948;-44
2023/01/12 16:30:03;;;;;;;;;;;17.70;42.40;;;;;;8364147;28;19920;-44
2023/01/12 16:34:03;;;;;;;;;;;17.70;42.40;;;;;;8363804;28;19932;-45
2023/01/12 16:38:04;;;;;;;;;;;17.70;42.40;;;;;;8363303;28;20317;-44
2023/01/12 16:42:04;;;;;;;;;;;17.60;42.30;;;;;;8363565;28;19913;-47
2023/01/12 16:46:05;;;;;;;;;;;17.70;42.40;;;;;;8363355;28;19943;-44
2023/01/12 16:50:06;;;;;;;;;;;17.70;42.30;;;;;;8363204;28;19966;-44
2023/01/12 16:54:07;;;;;;;;;;;17.70;42.40;;;;;;8363325;28;19921;-45
2023/01/12 16:58:08;;;;;;;;;;;17.60;42.30;;;;;;8363048;28;19952;-44
2023/01/12 17:02:15;;;;;;;;;;;17.60;42.30;;;;;;8362455;28;19921;-45
2023/01/12 17:06:17;;;;;;;;;;;17.60;42.30;;;;;;8361983;28;19913;-45
2023/01/12 17:10:17;;;;;;;;;;;17.70;42.40;;;;;;8363155;28;20305;-45
2023/01/12 17:14:24;;;;;;;;;;;17.60;42.30;;;;;;8362523;28;20067;-45
2023/01/12 17:18:24;;;;;;;;;;;17.70;42.40;;;;;;8362992;28;20321;-44
2023/01/12 17:22:25;;;;;;;;;;;17.60;42.30;;;;;;8362787;28;20011;-44
2023/01/12 17:26:25;;;;;;;;;;;17.70;42.40;;;;;;8366648;28;20009;-44
2023/01/12 17:30:26;;;;;;;;;;;17.70;42.30;;;;;;8369799;28;19923;-44
2023/01/12 17:34:28;;;;;;;;;;;17.70;42.30;;;;;;8369525;28;19927;-45
2023/01/12 17:38:29;;;;;;;;;;;17.70;42.30;;;;;;8368870;28;20400;-41
2023/01/12 17:46:49;;;;;;;;;;;17.70;42.30;;;;;;8371315;28;19924;-42
2023/01/12 17:50:49;;;;;;;;;;;17.70;42.30;;;;;;8369172;28;20270;-43
2023/01/12 17:54:49;;;;;;;;;;;17.70;42.30;;;;;;8368900;28;19921;-43
2023/01/12 17:58:50;;;;;;;;;;;17.70;42.40;;;;;;8368047;28;20015;-44
2023/01/12 18:02:51;;;;;;;;;;;17.60;42.30;;;;;;8368915;28;19917;-43
2023/01/12 18:06:51;;;;;;;;;;;17.60;42.30;;;;;;8368403;28;20516;-43
2023/01/12 18:10:55;;;;;;;;;;;17.70;42.40;;;;;;8368174;28;19913;-43
2023/01/12 18:14:55;;;;;;;;;;;17.70;42.30;;;;;;8368604;28;20316;-44
2023/01/12 18:18:56;;;;;;;;;;;17.70;42.30;;;;;;8368099;28;19970;-43
2023/01/12 18:22:56;;;;;;;;;;;17.70;42.30;;;;;;8367483;28;20376;-43
2023/01/12 18:26:57;;;;;;;;;;;17.70;42.40;;;;;;8368001;28;19921;-43
2023/01/12 18:31:01;;;;;;;;;;;17.70;42.30;;;;;;8367918;28;19913;-43
2023/01/12 18:35:02;;;;;;;;;;;17.70;42.40;;;;;;8367388;28;19925;-43
2023/01/12 18:39:04;;;;;;;;;;;17.70;42.30;;;;;;8366221;28;19979;-43
2023/01/12 18:43:04;;;;;;;;;;;17.70;42.30;;;;;;8367302;28;19923;-43
2023/01/12 18:55:43;;;;;;;;;;;17.70;42.30;;;;;;8369907;28;20349;-42
2023/01/12 18:59:44;;;;;;;;;;;17.70;42.30;;;;;;8366931;28;19925;-43
2023/01/12 19:03:44;;;;;;;;;;;17.70;42.30;;;;;;8366963;28;20412;-43
2023/01/12 19:09:33;;;;;;;;;;;17.70;42.30;;;;;;8366178;28;19924;-43
2023/01/12 19:12:08;;;;;;;;;;;17.70;42.30;;;;;;8366178;28;19943;-43
2023/01/12 19:20:33;;;;;;;;;;;17.70;42.30;;;;;;8365742;28;19999;-44
2023/01/12 19:28:53;;;;;;;;;;;17.70;42.20;;;;;;8367771;28;19924;-42
2023/01/12 19:32:54;;;;;;;;;;;17.70;42.30;;;;;;8365750;28;19916;-42
2023/01/12 19:36:54;;;;;;;;;;;17.70;42.30;;;;;;8365772;28;20030;-43
2023/01/12 19:41:08;;;;;;;;;;;17.70;42.30;;;;;;8365008;28;19917;-43
2023/01/12 19:45:09;;;;;;;;;;;17.70;42.80;;;;;;8372556;28;19924;-43
2023/01/12 19:49:10;;;;;;;;;;;17.70;42.20;;;;;;8365070;28;19924;-44
2023/01/12 19:53:13;;;;;;;;;;;17.70;42.30;;;;;;8364710;28;19962;-43
2023/01/12 19:57:13;;;;;;;;;;;17.60;42.20;;;;;;8365111;28;19924;-43
2023/01/12 20:01:20;;;;;;;;;;;17.70;42.30;;;;;;8365105;28;19923;-43
2023/01/12 20:05:21;;;;;;;;;;;17.70;42.20;;;;;;8364478;28;20420;-43
2023/01/12 20:09:22;;;;;;;;;;;17.70;42.20;;;;;;8363918;28;19924;-43
2023/01/12 20:13:23;;;;;;;;;;;17.70;42.20;;;;;;8364501;28;19912;-44
2023/01/12 20:17:23;;;;;;;;;;;17.70;42.20;;;;;;8364209;28;19929;-43
2023/01/12 20:21:24;;;;;;;;;;;17.70;42.20;;;;;;8364453;28;20293;-43
2023/01/12 20:25:24;;;;;;;;;;;17.70;42.30;;;;;;8364200;28;19917;-43
2023/01/12 20:29:25;;;;;;;;;;;17.70;42.30;;;;;;8363869;28;19917;-43
2023/01/12 20:33:27;;;;;;;;;;;17.70;42.20;;;;;;8363811;28;19913;-43
2023/01/12 20:37:27;;;;;;;;;;;17.70;42.20;;;;;;8363834;28;19936;-43
2023/01/12 20:41:28;;;;;;;;;;;17.70;42.20;;;;;;8363486;28;20337;-43
2023/01/12 20:45:28;;;;;;;;;;;17.70;42.20;;;;;;8363515;28;19920;-43
2023/01/12 20:49:29;;;;;;;;;;;17.70;42.20;;;;;;8363676;28;19919;-44
2023/01/12 20:53:30;;;;;;;;;;;17.70;42.20;;;;;;8363022;28;19917;-44
2023/01/12 20:57:32;;;;;;;;;;;17.70;42.20;;;;;;8363411;28;19925;-43
2023/01/12 21:01:33;;;;;;;;;;;17.70;42.10;;;;;;8363001;28;20099;-43
2023/01/12 21:05:34;;;;;;;;;;;17.70;42.20;;;;;;8362889;28;19932;-43
2023/01/12 21:09:34;;;;;;;;;;;17.70;42.20;;;;;;8362971;28;20358;-43
2023/01/12 21:13:35;;;;;;;;;;;17.60;42.20;;;;;;8362978;28;20003;-45
2023/01/12 21:17:37;;;;;;;;;;;17.70;42.30;;;;;;8362485;28;19924;-43
2023/01/12 21:21:38;;;;;;;;;;;17.70;42.20;;;;;;8363175;28;19916;-43
2023/01/12 21:25:40;;;;;;;;;;;17.60;42.10;;;;;;8362928;28;20370;-44
2023/01/12 21:29:40;;;;;;;;;;;17.60;42.10;;;;;;8362308;28;19917;-44
2023/01/12 21:33:41;;;;;;;;;;;17.70;42.20;;;;;;8362615;28;19913;-44
2023/01/12 21:37:41;;;;;;;;;;;17.70;42.10;;;;;;8362768;28;19932;-44
2023/01/12 21:46:02;;;;;;;;;;;17.70;42.20;;;;;;8362844;28;19923;-44
2023/01/12 21:50:04;;;;;;;;;;;17.70;42.20;;;;;;8362097;28;19924;-43
2023/01/12 21:54:04;;;;;;;;;;;17.70;42.20;;;;;;8362450;28;20348;-44
2023/01/12 21:58:05;;;;;;;;;;;17.70;42.20;;;;;;8362097;28;19932;-45
2023/01/12 22:02:07;;;;;;;;;;;17.60;42.20;;;;;;8362057;28;19943;-44
2023/01/12 22:06:08;;;;;;;;;;;17.60;42.20;;;;;;8362119;28;19951;-45
2023/01/12 22:10:18;;;;;;;;;;;17.60;42.20;;;;;;8362531;28;19951;-45
2023/01/12 22:14:18;;;;;;;;;;;17.60;42.70;;;;;;8366655;28;19959;-44
2023/01/12 22:18:19;;;;;;;;;;;17.60;42.20;;;;;;8368179;28;19921;-44
2023/01/12 22:22:20;;;;;;;;;;;17.60;42.10;;;;;;8368470;28;19948;-43
2023/01/12 22:26:20;;;;;;;;;;;17.60;42.10;;;;;;8367546;28;19940;-43
2023/01/12 22:30:22;;;;;;;;;;;17.60;42.20;;;;;;8367895;28;19925;-43
2023/01/12 22:34:23;;;;;;;;;;;17.60;42.20;;;;;;8367784;28;19936;-44
2023/01/12 22:38:24;;;;;;;;;;;17.60;42.20;;;;;;8366845;28;19931;-44
2023/01/12 22:46:44;;;;;;;;;;;17.60;42.20;;;;;;8367053;28;19923;-42
2023/01/12 22:50:46;;;;;;;;;;;17.60;42.20;;;;;;8367170;28;19917;-44
2023/01/12 22:54:46;;;;;;;;;;;17.60;42.20;;;;;;8367133;28;20283;-43
2023/01/12 22:58:47;;;;;;;;;;;17.60;42.20;;;;;;8366375;28;19982;-42
2023/01/12 23:03:00;;;;;;;;;;;17.60;42.80;;;;;;8351110;28;19913;-43
2023/01/12 23:07:01;;;;;;;;;;;17.60;42.20;;;;;;8364046;28;19917;-44
2023/01/12 23:11:05;;;;;;;;;;;17.60;42.10;;;;;;8365002;28;20428;-43
2023/01/12 23:15:06;;;;;;;;;;;17.60;42.10;;;;;;8366460;28;19923;-43
2023/01/12 23:19:07;;;;;;;;;;;17.60;42.10;;;;;;8366160;28;19929;-44
2023/01/12 23:23:08;;;;;;;;;;;17.60;42.10;;;;;;8365360;28;19963;-44
2023/01/12 23:27:08;;;;;;;;;;;17.60;42.10;;;;;;8365955;28;20430;-43
2023/01/12 23:31:10;;;;;;;;;;;17.60;42.10;;;;;;8365889;28;20305;-45
2023/01/12 23:35:11;;;;;;;;;;;17.60;42.70;;;;;;8365474;28;19927;-44
2023/01/12 23:39:11;;;;;;;;;;;17.60;42.10;;;;;;8365458;28;20325;-44
2023/01/12 23:43:12;;;;;;;;;;;17.60;42.10;;;;;;8365763;28;20336;-45
2023/01/12 23:47:14;;;;;;;;;;;17.60;42.10;;;;;;8364955;28;19938;-43
2023/01/12 23:51:15;;;;;;;;;;;17.60;42.10;;;;;;8365267;28;20286;-43
2023/01/12 23:55:15;;;;;;;;;;;17.60;42.10;;;;;;8365450;28;19921;-43
2023/01/12 23:59:16;;;;;;;;;;;17.50;42.10;;;;;;8364882;28;19924;-43
